Nearby METAR Reports

KLWM - Lawrence,MA, USA
Distance from station: NE 12mi, 19km
Updated: Tue, 22-Oct-2019 9:54am EDT
Mostly Cloudy
Mostly Cloudy
 Wind from NE
Wind: NE 7 mph , 11 km/h
Temperature: 48°F , 9°C
Wind Chill: 45°F , 7°C
Dew Point: 45°F , 7°C
Humidity: 87%
Barometer: 30.17 inHg , 1021.7 hPa
Clouds: Mostly Cloudy
Visibility: 10 miles , 16 km
Cloud details: Partly Cloudy 800 ft
Mostly Cloudy 1400 ft
2019/10/22 13:54 KLWM 221354Z 04006KT 10SM SCT008 BKN014 09/07 A3017 RMK AO2 SLP218 T00940072
KBED - Bedford,MA, USA
Distance from station: SSE 12mi, 19km
Updated: Tue, 22-Oct-2019 9:58am EDT
Mist, Overcast
Mist, Overcast
 Wind from NE
Wind: NE 6 mph , 9 km/h
Temperature: 54°F , 12°C
Dew Point: 46°F , 8°C
Humidity: 77%
Barometer: 30.14 inHg , 1020.7 hPa
Summary: Mist
Clouds: Overcast
Visibility: 6 miles , 10 km
Cloud details: Overcast 500 ft
2019/10/22 13:58 KBED 221358Z 04005KT 6SM BR OVC005 12/08 A3014 RMK AO2 T01220083

Metar display script from Saratoga-Weather.org